sensor_id;sensor_type;location;lat;lon;timestamp;temperature;humidity
76120;DHT22;64852;48.092;-1.640;2023-05-29T00:00:04;19.70;91.70
76120;DHT22;64852;48.092;-1.640;2023-05-29T00:02:32;19.70;94.00
76120;DHT22;64852;48.092;-1.640;2023-05-29T00:04:58;19.60;95.10
76120;DHT22;64852;48.092;-1.640;2023-05-29T00:07:23;19.60;93.30
76120;DHT22;64852;48.092;-1.640;2023-05-29T00:09:49;19.60;99.90
76120;DHT22;64852;48.092;-1.640;2023-05-29T00:12:14;19.50;96.50
76120;DHT22;64852;48.092;-1.640;2023-05-29T00:14:40;19.50;94.60
76120;DHT22;64852;48.092;-1.640;2023-05-29T00:17:05;19.50;97.30
76120;DHT22;64852;48.092;-1.640;2023-05-29T00:19:31;19.60;93.40
76120;DHT22;64852;48.092;-1.640;2023-05-29T00:21:56;19.60;96.20
76120;DHT22;64852;48.092;-1.640;2023-05-29T00:24:22;19.50;98.80
76120;DHT22;64852;48.092;-1.640;2023-05-29T00:26:47;19.50;94.60
76120;DHT22;64852;48.092;-1.640;2023-05-29T00:29:13;19.50;96.80
76120;DHT22;64852;48.092;-1.640;2023-05-29T00:31:39;19.50;94.20
76120;DHT22;64852;48.092;-1.640;2023-05-29T00:34:05;19.50;96.50
76120;DHT22;64852;48.092;-1.640;2023-05-29T00:36:30;19.40;94.80
76120;DHT22;64852;48.092;-1.640;2023-05-29T00:38:56;19.40;96.20
76120;DHT22;64852;48.092;-1.640;2023-05-29T00:41:22;19.40;96.00
76120;DHT22;64852;48.092;-1.640;2023-05-29T00:43:47;19.40;94.90
76120;DHT22;64852;48.092;-1.640;2023-05-29T00:46:13;19.40;96.60
76120;DHT22;64852;48.092;-1.640;2023-05-29T00:48:40;19.40;95.00
76120;DHT22;64852;48.092;-1.640;2023-05-29T00:51:06;19.30;97.00
76120;DHT22;64852;48.092;-1.640;2023-05-29T00:53:32;19.30;97.00
76120;DHT22;64852;48.092;-1.640;2023-05-29T00:55:57;19.30;94.70
76120;DHT22;64852;48.092;-1.640;2023-05-29T00:58:24;19.30;96.30
76120;DHT22;64852;48.092;-1.640;2023-05-29T01:00:49;19.30;99.90
76120;DHT22;64852;48.092;-1.640;2023-05-29T01:03:16;19.20;97.70
76120;DHT22;64852;48.092;-1.640;2023-05-29T01:05:43;19.10;98.20
76120;DHT22;64852;48.092;-1.640;2023-05-29T01:08:08;19.10;97.90
76120;DHT22;64852;48.092;-1.640;2023-05-29T01:10:34;19.10;98.80
76120;DHT22;64852;48.092;-1.640;2023-05-29T01:13:06;19.10;97.70
76120;DHT22;64852;48.092;-1.640;2023-05-29T01:26:12;19.00;97.30
76120;DHT22;64852;48.092;-1.640;2023-05-29T01:28:48;19.00;99.50
76120;DHT22;64852;48.092;-1.640;2023-05-29T01:31:16;19.00;97.70
76120;DHT22;64852;48.092;-1.640;2023-05-29T01:33:45;19.00;99.90
76120;DHT22;64852;48.092;-1.640;2023-05-29T01:36:16;18.90;99.90
76120;DHT22;64852;48.092;-1.640;2023-05-29T01:38:42;18.90;98.70
76120;DHT22;64852;48.092;-1.640;2023-05-29T01:41:07;18.90;98.80
76120;DHT22;64852;48.092;-1.640;2023-05-29T01:43:33;18.90;99.90
76120;DHT22;64852;48.092;-1.640;2023-05-29T01:45:58;18.80;99.90
76120;DHT22;64852;48.092;-1.640;2023-05-29T01:48:25;18.80;99.90
76120;DHT22;64852;48.092;-1.640;2023-05-29T01:50:50;18.80;99.90
76120;DHT22;64852;48.092;-1.640;2023-05-29T01:53:17;18.70;99.90
76120;DHT22;64852;48.092;-1.640;2023-05-29T01:55:42;18.70;99.90
76120;DHT22;64852;48.092;-1.640;2023-05-29T01:58:08;18.60;99.90
76120;DHT22;64852;48.092;-1.640;2023-05-29T02:00:34;18.60;99.70
76120;DHT22;64852;48.092;-1.640;2023-05-29T02:02:59;18.50;99.90
76120;DHT22;64852;48.092;-1.640;2023-05-29T02:05:25;18.30;99.90
76120;DHT22;64852;48.092;-1.640;2023-05-29T02:07:51;18.50;99.90
76120;DHT22;64852;48.092;-1.640;2023-05-29T02:10:16;18.50;99.90
76120;DHT22;64852;48.092;-1.640;2023-05-29T02:12:42;18.40;99.90
76120;DHT22;64852;48.092;-1.640;2023-05-29T02:15:07;18.00;99.90
76120;DHT22;64852;48.092;-1.640;2023-05-29T02:17:33;18.30;99.90
76120;DHT22;64852;48.092;-1.640;2023-05-29T02:19:59;18.30;99.90
76120;DHT22;64852;48.092;-1.640;2023-05-29T02:22:25;18.20;99.90
76120;DHT22;64852;48.092;-1.640;2023-05-29T02:24:50;18.20;99.90
76120;DHT22;64852;48.092;-1.640;2023-05-29T02:27:16;18.20;99.90
76120;DHT22;64852;48.092;-1.640;2023-05-29T02:29:41;18.10;99.90
76120;DHT22;64852;48.092;-1.640;2023-05-29T02:32:07;18.10;99.90
76120;DHT22;64852;48.092;-1.640;2023-05-29T02:34:32;18.10;99.90
76120;DHT22;64852;48.092;-1.640;2023-05-29T02:36:58;18.10;99.90
76120;DHT22;64852;48.092;-1.640;2023-05-29T02:39:24;18.10;99.90
76120;DHT22;64852;48.092;-1.640;2023-05-29T02:41:49;18.50;99.90
76120;DHT22;64852;48.092;-1.640;2023-05-29T02:44:14;18.10;99.90
76120;DHT22;64852;48.092;-1.640;2023-05-29T02:46:40;18.00;99.90
76120;DHT22;64852;48.092;-1.640;2023-05-29T02:49:06;18.00;99.90
76120;DHT22;64852;48.092;-1.640;2023-05-29T02:51:31;18.00;99.90
76120;DHT22;64852;48.092;-1.640;2023-05-29T02:53:57;18.00;99.90
76120;DHT22;64852;48.092;-1.640;2023-05-29T02:56:23;17.90;99.90
76120;DHT22;64852;48.092;-1.640;2023-05-29T02:58:50;17.90;99.90
76120;DHT22;64852;48.092;-1.640;2023-05-29T03:01:16;17.80;99.90
76120;DHT22;64852;48.092;-1.640;2023-05-29T03:03:42;17.80;99.90
76120;DHT22;64852;48.092;-1.640;2023-05-29T03:06:07;17.80;99.90
76120;DHT22;64852;48.092;-1.640;2023-05-29T03:08:35;17.80;99.90
76120;DHT22;64852;48.092;-1.640;2023-05-29T03:11:06;17.80;99.90
76120;DHT22;64852;48.092;-1.640;2023-05-29T03:13:31;17.80;99.90
76120;DHT22;64852;48.092;-1.640;2023-05-29T03:15:59;17.80;99.90
76120;DHT22;64852;48.092;-1.640;2023-05-29T03:18:25;17.80;99.90
76120;DHT22;64852;48.092;-1.640;2023-05-29T03:20:50;17.80;99.90
76120;DHT22;64852;48.092;-1.640;2023-05-29T03:23:16;17.70;99.90
76120;DHT22;64852;48.092;-1.640;2023-05-29T03:25:41;17.60;99.90
76120;DHT22;64852;48.092;-1.640;2023-05-29T03:28:07;17.50;99.90
76120;DHT22;64852;48.092;-1.640;2023-05-29T03:30:33;17.50;99.90
76120;DHT22;64852;48.092;-1.640;2023-05-29T03:32:59;17.50;99.90
76120;DHT22;64852;48.092;-1.640;2023-05-29T03:35:29;17.40;99.90
76120;DHT22;64852;48.092;-1.640;2023-05-29T03:37:54;17.40;99.90
76120;DHT22;64852;48.092;-1.640;2023-05-29T03:40:20;17.30;99.90
76120;DHT22;64852;48.092;-1.640;2023-05-29T03:42:45;17.30;99.90
76120;DHT22;64852;48.092;-1.640;2023-05-29T03:45:11;17.30;99.90
76120;DHT22;64852;48.092;-1.640;2023-05-29T03:47:37;17.20;99.90
76120;DHT22;64852;48.092;-1.640;2023-05-29T03:50:02;17.20;99.90
76120;DHT22;64852;48.092;-1.640;2023-05-29T03:52:28;17.10;99.90
76120;DHT22;64852;48.092;-1.640;2023-05-29T03:54:53;17.00;99.90
76120;DHT22;64852;48.092;-1.640;2023-05-29T03:57:19;17.00;99.90
76120;DHT22;64852;48.092;-1.640;2023-05-29T03:59:44;17.00;99.90
76120;DHT22;64852;48.092;-1.640;2023-05-29T04:02:10;17.00;99.90
76120;DHT22;64852;48.092;-1.640;2023-05-29T04:04:35;17.00;99.90
76120;DHT22;64852;48.092;-1.640;2023-05-29T04:07:01;16.90;99.90
76120;DHT22;64852;48.092;-1.640;2023-05-29T04:09:26;16.90;99.90
76120;DHT22;64852;48.092;-1.640;2023-05-29T04:11:52;16.90;99.90
76120;DHT22;64852;48.092;-1.640;2023-05-29T04:14:17;16.90;99.90
76120;DHT22;64852;48.092;-1.640;2023-05-29T04:16:43;16.90;99.90
76120;DHT22;64852;48.092;-1.640;2023-05-29T04:19:08;16.80;99.90
76120;DHT22;64852;48.092;-1.640;2023-05-29T04:21:34;16.80;99.90
76120;DHT22;64852;48.092;-1.640;2023-05-29T04:24:00;16.80;99.90
76120;DHT22;64852;48.092;-1.640;2023-05-29T04:26:25;16.80;99.90
76120;DHT22;64852;48.092;-1.640;2023-05-29T04:28:54;16.70;99.90
76120;DHT22;64852;48.092;-1.640;2023-05-29T04:31:25;16.70;99.90
76120;DHT22;64852;48.092;-1.640;2023-05-29T04:33:54;16.70;99.90
76120;DHT22;64852;48.092;-1.640;2023-05-29T04:36:22;16.70;99.90
76120;DHT22;64852;48.092;-1.640;2023-05-29T04:38:48;16.70;99.90
76120;DHT22;64852;48.092;-1.640;2023-05-29T04:41:16;16.70;99.90
76120;DHT22;64852;48.092;-1.640;2023-05-29T04:43:41;16.70;99.90
76120;DHT22;64852;48.092;-1.640;2023-05-29T04:46:07;16.60;99.90
76120;DHT22;64852;48.092;-1.640;2023-05-29T04:48:38;16.60;99.90
76120;DHT22;64852;48.092;-1.640;2023-05-29T04:51:06;16.60;99.90
76120;DHT22;64852;48.092;-1.640;2023-05-29T04:53:31;16.50;99.90
76120;DHT22;64852;48.092;-1.640;2023-05-29T04:55:57;16.50;99.90
76120;DHT22;64852;48.092;-1.640;2023-05-29T04:58:25;16.50;99.90
76120;DHT22;64852;48.092;-1.640;2023-05-29T05:00:50;16.50;99.90
76120;DHT22;64852;48.092;-1.640;2023-05-29T05:03:16;16.60;99.90
76120;DHT22;64852;48.092;-1.640;2023-05-29T05:05:42;16.60;99.90
76120;DHT22;64852;48.092;-1.640;2023-05-29T05:08:11;16.60;99.90
76120;DHT22;64852;48.092;-1.640;2023-05-29T05:10:37;16.60;99.90
76120;DHT22;64852;48.092;-1.640;2023-05-29T05:13:03;16.60;99.90
76120;DHT22;64852;48.092;-1.640;2023-05-29T05:15:28;16.60;99.90
76120;DHT22;64852;48.092;-1.640;2023-05-29T05:17:54;16.50;99.90
76120;DHT22;64852;48.092;-1.640;2023-05-29T05:20:19;16.60;99.90
76120;DHT22;64852;48.092;-1.640;2023-05-29T05:22:45;16.60;99.90
76120;DHT22;64852;48.092;-1.640;2023-05-29T05:25:10;16.60;99.90
76120;DHT22;64852;48.092;-1.640;2023-05-29T05:27:36;16.60;99.90
76120;DHT22;64852;48.092;-1.640;2023-05-29T05:30:03;16.50;99.90
76120;DHT22;64852;48.092;-1.640;2023-05-29T05:32:28;16.50;99.90
76120;DHT22;64852;48.092;-1.640;2023-05-29T05:34:54;16.60;99.90
76120;DHT22;64852;48.092;-1.640;2023-05-29T05:37:20;16.60;99.90
76120;DHT22;64852;48.092;-1.640;2023-05-29T05:39:49;16.60;99.90
76120;DHT22;64852;48.092;-1.640;2023-05-29T05:42:14;15.30;99.90
76120;DHT22;64852;48.092;-1.640;2023-05-29T05:44:41;16.60;99.90
76120;DHT22;64852;48.092;-1.640;2023-05-29T05:47:06;16.60;99.90
76120;DHT22;64852;48.092;-1.640;2023-05-29T05:49:33;16.70;99.90
76120;DHT22;64852;48.092;-1.640;2023-05-29T05:51:59;16.60;99.90
76120;DHT22;64852;48.092;-1.640;2023-05-29T05:54:24;16.70;99.90
76120;DHT22;64852;48.092;-1.640;2023-05-29T05:56:50;16.70;99.90
76120;DHT22;64852;48.092;-1.640;2023-05-29T05:59:15;16.70;99.90
76120;DHT22;64852;48.092;-1.640;2023-05-29T06:01:41;16.80;99.90
76120;DHT22;64852;48.092;-1.640;2023-05-29T06:04:07;16.80;99.90
76120;DHT22;64852;48.092;-1.640;2023-05-29T06:06:33;16.80;99.90
76120;DHT22;64852;48.092;-1.640;2023-05-29T06:08:59;16.80;99.90
76120;DHT22;64852;48.092;-1.640;2023-05-29T06:11:25;16.80;99.90
76120;DHT22;64852;48.092;-1.640;2023-05-29T06:13:53;16.80;99.90
76120;DHT22;64852;48.092;-1.640;2023-05-29T06:16:18;16.80;99.90
76120;DHT22;64852;48.092;-1.640;2023-05-29T06:18:44;16.80;99.90
76120;DHT22;64852;48.092;-1.640;2023-05-29T06:21:11;16.90;99.90
76120;DHT22;64852;48.092;-1.640;2023-05-29T06:23:37;16.90;99.90
76120;DHT22;64852;48.092;-1.640;2023-05-29T06:26:03;16.90;99.90
76120;DHT22;64852;48.092;-1.640;2023-05-29T06:28:29;16.90;99.90
76120;DHT22;64852;48.092;-1.640;2023-05-29T06:30:55;17.00;99.90
76120;DHT22;64852;48.092;-1.640;2023-05-29T06:33:21;16.90;99.90
76120;DHT22;64852;48.092;-1.640;2023-05-29T06:35:47;17.00;99.90
76120;DHT22;64852;48.092;-1.640;2023-05-29T06:38:13;17.30;99.90
76120;DHT22;64852;48.092;-1.640;2023-05-29T06:40:39;17.00;99.90
76120;DHT22;64852;48.092;-1.640;2023-05-29T06:43:04;17.10;99.90
76120;DHT22;64852;48.092;-1.640;2023-05-29T06:45:30;17.30;99.90
76120;DHT22;64852;48.092;-1.640;2023-05-29T06:47:55;17.30;99.90
76120;DHT22;64852;48.092;-1.640;2023-05-29T06:50:21;17.50;99.90
76120;DHT22;64852;48.092;-1.640;2023-05-29T06:52:46;17.50;99.90
76120;DHT22;64852;48.092;-1.640;2023-05-29T06:55:12;17.60;99.90
76120;DHT22;64852;48.092;-1.640;2023-05-29T06:57:37;17.60;99.90
76120;DHT22;64852;48.092;-1.640;2023-05-29T07:00:04;17.70;99.90
76120;DHT22;64852;48.092;-1.640;2023-05-29T07:02:31;17.70;99.90
76120;DHT22;64852;48.092;-1.640;2023-05-29T07:04:56;17.70;99.90
76120;DHT22;64852;48.092;-1.640;2023-05-29T07:07:22;17.70;99.90
76120;DHT22;64852;48.092;-1.640;2023-05-29T07:09:47;17.80;99.90
76120;DHT22;64852;48.092;-1.640;2023-05-29T07:12:13;17.90;99.90
76120;DHT22;64852;48.092;-1.640;2023-05-29T07:14:38;17.90;99.90
76120;DHT22;64852;48.092;-1.640;2023-05-29T07:17:04;17.90;99.90
76120;DHT22;64852;48.092;-1.640;2023-05-29T07:19:30;18.00;99.90
76120;DHT22;64852;48.092;-1.640;2023-05-29T07:21:57;18.10;99.90
76120;DHT22;64852;48.092;-1.640;2023-05-29T07:24:23;19.80;99.90
76120;DHT22;64852;48.092;-1.640;2023-05-29T07:26:48;18.30;99.90
76120;DHT22;64852;48.092;-1.640;2023-05-29T07:29:14;18.40;99.90
76120;DHT22;64852;48.092;-1.640;2023-05-29T07:31:42;18.50;99.90
76120;DHT22;64852;48.092;-1.640;2023-05-29T07:34:07;19.00;99.90
76120;DHT22;64852;48.092;-1.640;2023-05-29T07:36:33;18.60;99.90
76120;DHT22;64852;48.092;-1.640;2023-05-29T07:38:58;18.60;99.90
76120;DHT22;64852;48.092;-1.640;2023-05-29T07:41:24;18.70;99.90
76120;DHT22;64852;48.092;-1.640;2023-05-29T07:43:51;18.80;99.90
76120;DHT22;64852;48.092;-1.640;2023-05-29T07:46:17;18.80;99.90
76120;DHT22;64852;48.092;-1.640;2023-05-29T07:48:43;18.90;99.90
76120;DHT22;64852;48.092;-1.640;2023-05-29T07:51:08;19.00;99.90
76120;DHT22;64852;48.092;-1.640;2023-05-29T07:53:37;19.10;99.90
76120;DHT22;64852;48.092;-1.640;2023-05-29T07:56:03;19.10;99.90
76120;DHT22;64852;48.092;-1.640;2023-05-29T07:58:29;19.20;99.90
76120;DHT22;64852;48.092;-1.640;2023-05-29T08:00:54;19.20;99.90
76120;DHT22;64852;48.092;-1.640;2023-05-29T08:03:20;19.30;99.90
76120;DHT22;64852;48.092;-1.640;2023-05-29T08:05:46;19.40;99.90
76120;DHT22;64852;48.092;-1.640;2023-05-29T08:08:11;19.40;99.90
76120;DHT22;64852;48.092;-1.640;2023-05-29T08:10:38;19.40;99.90
76120;DHT22;64852;48.092;-1.640;2023-05-29T08:13:04;19.30;99.90
76120;DHT22;64852;48.092;-1.640;2023-05-29T08:15:29;19.30;99.90
76120;DHT22;64852;48.092;-1.640;2023-05-29T08:17:56;19.30;99.90
76120;DHT22;64852;48.092;-1.640;2023-05-29T08:20:22;19.40;99.90
76120;DHT22;64852;48.092;-1.640;2023-05-29T08:22:47;19.40;99.90
76120;DHT22;64852;48.092;-1.640;2023-05-29T08:25:13;19.40;99.90
76120;DHT22;64852;48.092;-1.640;2023-05-29T08:27:38;19.40;99.90
76120;DHT22;64852;48.092;-1.640;2023-05-29T08:30:04;19.50;99.90
76120;DHT22;64852;48.092;-1.640;2023-05-29T08:32:29;19.50;99.90
76120;DHT22;64852;48.092;-1.640;2023-05-29T08:34:55;19.60;99.90
76120;DHT22;64852;48.092;-1.640;2023-05-29T08:37:21;19.70;99.90
76120;DHT22;64852;48.092;-1.640;2023-05-29T08:39:46;19.80;99.90
76120;DHT22;64852;48.092;-1.640;2023-05-29T08:42:12;19.80;99.90
76120;DHT22;64852;48.092;-1.640;2023-05-29T08:44:39;19.90;99.90
76120;DHT22;64852;48.092;-1.640;2023-05-29T08:47:04;19.90;99.90
76120;DHT22;64852;48.092;-1.640;2023-05-29T08:49:37;21.20;99.90
76120;DHT22;64852;48.092;-1.640;2023-05-29T08:52:38;20.10;99.90
76120;DHT22;64852;48.092;-1.640;2023-05-29T08:54:57;20.20;99.90
76120;DHT22;64852;48.092;-1.640;2023-05-29T08:57:23;20.30;99.90
76120;DHT22;64852;48.092;-1.640;2023-05-29T08:59:51;20.40;99.90
76120;DHT22;64852;48.092;-1.640;2023-05-29T09:02:17;20.50;99.90
76120;DHT22;64852;48.092;-1.640;2023-05-29T09:04:42;20.50;99.90
76120;DHT22;64852;48.092;-1.640;2023-05-29T09:07:14;20.60;99.90
76120;DHT22;64852;48.092;-1.640;2023-05-29T09:09:40;20.70;99.90
76120;DHT22;64852;48.092;-1.640;2023-05-29T09:12:06;20.70;99.90
76120;DHT22;64852;48.092;-1.640;2023-05-29T09:14:42;20.70;99.90
76120;DHT22;64852;48.092;-1.640;2023-05-29T09:17:08;20.90;99.90
76120;DHT22;64852;48.092;-1.640;2023-05-29T09:19:34;20.90;99.90
76120;DHT22;64852;48.092;-1.640;2023-05-29T09:24:27;21.00;99.90
76120;DHT22;64852;48.092;-1.640;2023-05-29T09:26:52;21.00;99.90
76120;DHT22;64852;48.092;-1.640;2023-05-29T09:29:18;21.10;99.90
76120;DHT22;64852;48.092;-1.640;2023-05-29T09:31:47;21.10;99.90
76120;DHT22;64852;48.092;-1.640;2023-05-29T09:34:13;20.80;99.90
76120;DHT22;64852;48.092;-1.640;2023-05-29T09:36:38;21.30;99.40
76120;DHT22;64852;48.092;-1.640;2023-05-29T09:39:04;21.30;98.30
76120;DHT22;64852;48.092;-1.640;2023-05-29T09:41:29;21.40;99.40
76120;DHT22;64852;48.092;-1.640;2023-05-29T09:43:56;21.40;99.10
76120;DHT22;64852;48.092;-1.640;2023-05-29T09:46:26;21.50;99.40
76120;DHT22;64852;48.092;-1.640;2023-05-29T09:48:51;21.50;96.50
76120;DHT22;64852;48.092;-1.640;2023-05-29T09:51:22;21.60;97.00
76120;DHT22;64852;48.092;-1.640;2023-05-29T09:53:49;21.60;97.50
76120;DHT22;64852;48.092;-1.640;2023-05-29T09:56:16;21.70;98.60
76120;DHT22;64852;48.092;-1.640;2023-05-29T09:58:45;21.90;99.60
76120;DHT22;64852;48.092;-1.640;2023-05-29T10:01:13;22.10;99.90
76120;DHT22;64852;48.092;-1.640;2023-05-29T10:03:41;22.30;99.50
76120;DHT22;64852;48.092;-1.640;2023-05-29T10:06:07;22.40;96.80
76120;DHT22;64852;48.092;-1.640;2023-05-29T10:08:36;22.40;96.20
76120;DHT22;64852;48.092;-1.640;2023-05-29T10:11:03;22.40;93.10
76120;DHT22;64852;48.092;-1.640;2023-05-29T10:13:36;22.40;92.00
76120;DHT22;64852;48.092;-1.640;2023-05-29T10:16:03;23.10;93.80
76120;DHT22;64852;48.092;-1.640;2023-05-29T10:18:35;22.30;93.00
76120;DHT22;64852;48.092;-1.640;2023-05-29T10:21:02;22.30;94.40
76120;DHT22;64852;48.092;-1.640;2023-05-29T10:23:28;22.40;92.00
76120;DHT22;64852;48.092;-1.640;2023-05-29T10:25:57;22.50;93.30
76120;DHT22;64852;48.092;-1.640;2023-05-29T10:28:26;22.50;93.80
76120;DHT22;64852;48.092;-1.640;2023-05-29T10:36:13;22.90;90.90
76120;DHT22;64852;48.092;-1.640;2023-05-29T10:38:40;23.00;87.30
76120;DHT22;64852;48.092;-1.640;2023-05-29T10:43:53;23.10;87.70
76120;DHT22;64852;48.092;-1.640;2023-05-29T10:46:19;23.10;86.30
76120;DHT22;64852;48.092;-1.640;2023-05-29T10:48:45;23.20;81.40
76120;DHT22;64852;48.092;-1.640;2023-05-29T10:51:36;23.30;82.90
76120;DHT22;64852;48.092;-1.640;2023-05-29T10:54:00;23.40;87.10
76120;DHT22;64852;48.092;-1.640;2023-05-29T10:56:28;23.60;89.50
76120;DHT22;64852;48.092;-1.640;2023-05-29T10:58:55;25.50;92.80
76120;DHT22;64852;48.092;-1.640;2023-05-29T11:01:21;24.10;82.10
76120;DHT22;64852;48.092;-1.640;2023-05-29T11:03:47;24.20;83.10
76120;DHT22;64852;48.092;-1.640;2023-05-29T11:06:20;24.30;81.50
76120;DHT22;64852;48.092;-1.640;2023-05-29T11:09:00;24.40;77.00
76120;DHT22;64852;48.092;-1.640;2023-05-29T11:11:33;24.50;75.30
76120;DHT22;64852;48.092;-1.640;2023-05-29T11:14:06;24.60;80.10
76120;DHT22;64852;48.092;-1.640;2023-05-29T11:18:58;24.90;76.90
76120;DHT22;64852;48.092;-1.640;2023-05-29T11:24:05;25.10;76.90
76120;DHT22;64852;48.092;-1.640;2023-05-29T11:26:31;25.10;75.90
76120;DHT22;64852;48.092;-1.640;2023-05-29T11:29:01;25.20;76.60
76120;DHT22;64852;48.092;-1.640;2023-05-29T11:31:27;25.30;70.10
76120;DHT22;64852;48.092;-1.640;2023-05-29T11:33:54;25.20;65.60
76120;DHT22;64852;48.092;-1.640;2023-05-29T11:36:21;25.10;71.20
76120;DHT22;64852;48.092;-1.640;2023-05-29T11:38:46;25.20;69.80
76120;DHT22;64852;48.092;-1.640;2023-05-29T11:41:12;25.20;70.10
76120;DHT22;64852;48.092;-1.640;2023-05-29T11:43:37;25.30;68.70
76120;DHT22;64852;48.092;-1.640;2023-05-29T11:46:13;25.40;67.90
76120;DHT22;64852;48.092;-1.640;2023-05-29T11:48:48;25.50;68.10
76120;DHT22;64852;48.092;-1.640;2023-05-29T11:51:14;25.50;68.20
76120;DHT22;64852;48.092;-1.640;2023-05-29T11:53:41;25.70;69.60
76120;DHT22;64852;48.092;-1.640;2023-05-29T11:56:08;25.80;68.10
76120;DHT22;64852;48.092;-1.640;2023-05-29T11:58:34;25.90;68.00
76120;DHT22;64852;48.092;-1.640;2023-05-29T12:00:59;26.10;67.00
76120;DHT22;64852;48.092;-1.640;2023-05-29T12:03:25;26.10;67.10
76120;DHT22;64852;48.092;-1.640;2023-05-29T12:05:50;26.30;70.60
76120;DHT22;64852;48.092;-1.640;2023-05-29T12:08:24;26.60;69.90
76120;DHT22;64852;48.092;-1.640;2023-05-29T12:10:50;26.80;64.50
76120;DHT22;64852;48.092;-1.640;2023-05-29T12:13:18;27.10;65.50
76120;DHT22;64852;48.092;-1.640;2023-05-29T12:15:43;27.40;65.80
76120;DHT22;64852;48.092;-1.640;2023-05-29T12:18:09;27.90;69.00
76120;DHT22;64852;48.092;-1.640;2023-05-29T12:20:35;28.60;63.00
76120;DHT22;64852;48.092;-1.640;2023-05-29T12:23:01;29.00;62.60
76120;DHT22;64852;48.092;-1.640;2023-05-29T12:25:27;29.40;56.00
76120;DHT22;64852;48.092;-1.640;2023-05-29T12:27:53;29.70;59.10
76120;DHT22;64852;48.092;-1.640;2023-05-29T12:30:20;30.20;58.20
76120;DHT22;64852;48.092;-1.640;2023-05-29T12:32:47;30.60;55.00
76120;DHT22;64852;48.092;-1.640;2023-05-29T12:38:07;31.50;59.30
76120;DHT22;64852;48.092;-1.640;2023-05-29T12:40:34;32.00;59.00
76120;DHT22;64852;48.092;-1.640;2023-05-29T12:43:03;32.20;52.40
76120;DHT22;64852;48.092;-1.640;2023-05-29T12:45:30;32.20;49.50
76120;DHT22;64852;48.092;-1.640;2023-05-29T12:47:59;32.10;48.20
76120;DHT22;64852;48.092;-1.640;2023-05-29T12:50:29;32.20;47.90
76120;DHT22;64852;48.092;-1.640;2023-05-29T12:55:24;32.60;49.50
76120;DHT22;64852;48.092;-1.640;2023-05-29T12:57:49;33.00;49.70
76120;DHT22;64852;48.092;-1.640;2023-05-29T13:00:15;33.50;51.30
76120;DHT22;64852;48.092;-1.640;2023-05-29T13:02:41;33.90;46.80
76120;DHT22;64852;48.092;-1.640;2023-05-29T13:05:07;34.10;45.70
76120;DHT22;64852;48.092;-1.640;2023-05-29T13:07:33;34.30;45.50
76120;DHT22;64852;48.092;-1.640;2023-05-29T13:09:59;34.50;45.20
76120;DHT22;64852;48.092;-1.640;2023-05-29T13:12:24;34.60;46.10
76120;DHT22;64852;48.092;-1.640;2023-05-29T13:14:50;34.80;43.30
76120;DHT22;64852;48.092;-1.640;2023-05-29T13:17:15;35.00;42.50
76120;DHT22;64852;48.092;-1.640;2023-05-29T13:19:41;35.10;42.70
76120;DHT22;64852;48.092;-1.640;2023-05-29T13:22:07;35.30;39.50
76120;DHT22;64852;48.092;-1.640;2023-05-29T13:24:32;35.30;41.90
76120;DHT22;64852;48.092;-1.640;2023-05-29T13:26:58;35.50;42.50
76120;DHT22;64852;48.092;-1.640;2023-05-29T13:29:26;35.80;41.60
76120;DHT22;64852;48.092;-1.640;2023-05-29T13:31:51;36.20;41.00
76120;DHT22;64852;48.092;-1.640;2023-05-29T13:34:17;36.50;40.40
76120;DHT22;64852;48.092;-1.640;2023-05-29T13:36:42;36.60;38.90
76120;DHT22;64852;48.092;-1.640;2023-05-29T13:39:10;36.60;39.30
76120;DHT22;64852;48.092;-1.640;2023-05-29T13:41:35;36.70;38.00
76120;DHT22;64852;48.092;-1.640;2023-05-29T13:44:01;36.90;38.50
76120;DHT22;64852;48.092;-1.640;2023-05-29T13:46:26;37.30;38.40
76120;DHT22;64852;48.092;-1.640;2023-05-29T13:48:52;37.60;33.90
76120;DHT22;64852;48.092;-1.640;2023-05-29T13:51:18;37.30;34.80
76120;DHT22;64852;48.092;-1.640;2023-05-29T13:53:43;37.30;34.40
76120;DHT22;64852;48.092;-1.640;2023-05-29T13:56:08;37.30;36.10
76120;DHT22;64852;48.092;-1.640;2023-05-29T13:58:34;37.70;36.20
76120;DHT22;64852;48.092;-1.640;2023-05-29T14:01:00;38.10;36.20
76120;DHT22;64852;48.092;-1.640;2023-05-29T14:03:25;38.10;31.70
76120;DHT22;64852;48.092;-1.640;2023-05-29T14:05:54;38.20;32.40
76120;DHT22;64852;48.092;-1.640;2023-05-29T14:08:19;38.40;34.40
76120;DHT22;64852;48.092;-1.640;2023-05-29T14:10:45;38.30;31.40
76120;DHT22;64852;48.092;-1.640;2023-05-29T14:13:11;38.40;32.80
76120;DHT22;64852;48.092;-1.640;2023-05-29T14:15:36;38.50;31.40
76120;DHT22;64852;48.092;-1.640;2023-05-29T14:18:02;38.80;33.80
76120;DHT22;64852;48.092;-1.640;2023-05-29T14:20:28;39.00;32.00
76120;DHT22;64852;48.092;-1.640;2023-05-29T14:22:54;39.20;32.00
76120;DHT22;64852;48.092;-1.640;2023-05-29T14:25:20;39.60;32.40
76120;DHT22;64852;48.092;-1.640;2023-05-29T14:27:46;39.90;31.50
76120;DHT22;64852;48.092;-1.640;2023-05-29T14:30:11;40.10;30.70
76120;DHT22;64852;48.092;-1.640;2023-05-29T14:32:37;40.10;30.90
76120;DHT22;64852;48.092;-1.640;2023-05-29T14:35:02;40.20;29.60
76120;DHT22;64852;48.092;-1.640;2023-05-29T14:37:28;40.40;29.30
76120;DHT22;64852;48.092;-1.640;2023-05-29T14:39:53;40.60;30.10
76120;DHT22;64852;48.092;-1.640;2023-05-29T14:42:19;40.70;29.80
76120;DHT22;64852;48.092;-1.640;2023-05-29T14:44:44;40.80;29.20
76120;DHT22;64852;48.092;-1.640;2023-05-29T14:47:10;41.10;28.20
76120;DHT22;64852;48.092;-1.640;2023-05-29T14:49:36;40.80;28.20
76120;DHT22;64852;48.092;-1.640;2023-05-29T14:52:02;40.80;27.90
76120;DHT22;64852;48.092;-1.640;2023-05-29T14:54:29;40.70;27.90
76120;DHT22;64852;48.092;-1.640;2023-05-29T14:56:55;40.90;28.10
76120;DHT22;64852;48.092;-1.640;2023-05-29T14:59:23;41.00;27.40
76120;DHT22;64852;48.092;-1.640;2023-05-29T15:01:48;41.10;27.50
76120;DHT22;64852;48.092;-1.640;2023-05-29T15:04:15;41.40;27.30
76120;DHT22;64852;48.092;-1.640;2023-05-29T15:06:40;41.60;26.80
76120;DHT22;64852;48.092;-1.640;2023-05-29T15:09:06;41.60;26.50
76120;DHT22;64852;48.092;-1.640;2023-05-29T15:11:31;41.70;26.40
76120;DHT22;64852;48.092;-1.640;2023-05-29T15:13:57;41.90;27.00
76120;DHT22;64852;48.092;-1.640;2023-05-29T15:16:23;42.20;27.60
76120;DHT22;64852;48.092;-1.640;2023-05-29T15:18:48;42.40;26.80
76120;DHT22;64852;48.092;-1.640;2023-05-29T15:21:14;42.70;27.50
76120;DHT22;64852;48.092;-1.640;2023-05-29T15:23:39;43.00;27.00
76120;DHT22;64852;48.092;-1.640;2023-05-29T15:26:05;43.00;25.80
76120;DHT22;64852;48.092;-1.640;2023-05-29T15:28:31;42.70;24.80
76120;DHT22;64852;48.092;-1.640;2023-05-29T15:30:58;42.60;26.70
76120;DHT22;64852;48.092;-1.640;2023-05-29T15:33:25;42.80;26.30
76120;DHT22;64852;48.092;-1.640;2023-05-29T15:35:51;43.00;25.70
76120;DHT22;64852;48.092;-1.640;2023-05-29T15:38:16;42.90;24.70
76120;DHT22;64852;48.092;-1.640;2023-05-29T15:40:42;42.60;24.30